sensor_id;sensor_type;location;lat;lon;timestamp;P1;durP1;ratioP1;P2;durP2;ratioP2
55800;SDS011;41730;51.960;20.158;2023-02-03T00:01:28;7.40;;;2.70;;
55800;SDS011;41730;51.960;20.158;2023-02-03T00:03:59;6.20;;;3.20;;
55800;SDS011;41730;51.960;20.158;2023-02-03T00:06:31;4.40;;;2.80;;
55800;SDS011;41730;51.960;20.158;2023-02-03T00:09:03;6.10;;;2.90;;
55800;SDS011;41730;51.960;20.158;2023-02-03T00:11:35;4.20;;;2.60;;
55800;SDS011;41730;51.960;20.158;2023-02-03T00:14:06;5.40;;;2.60;;
55800;SDS011;41730;51.960;20.158;2023-02-03T00:16:38;6.80;;;2.50;;
55800;SDS011;41730;51.960;20.158;2023-02-03T00:19:09;6.50;;;2.80;;
55800;SDS011;41730;51.960;20.158;2023-02-03T00:21:44;5.90;;;2.90;;
55800;SDS011;41730;51.960;20.158;2023-02-03T00:24:16;4.60;;;2.50;;
55800;SDS011;41730;51.960;20.158;2023-02-03T00:26:47;5.50;;;2.80;;
55800;SDS011;41730;51.960;20.158;2023-02-03T00:29:19;7.20;;;3.20;;
55800;SDS011;41730;51.960;20.158;2023-02-03T00:31:53;5.30;;;2.80;;
55800;SDS011;41730;51.960;20.158;2023-02-03T00:34:28;4.90;;;2.50;;
55800;SDS011;41730;51.960;20.158;2023-02-03T00:37:00;5.20;;;2.30;;
55800;SDS011;41730;51.960;20.158;2023-02-03T00:39:34;4.20;;;2.50;;
55800;SDS011;41730;51.960;20.158;2023-02-03T00:42:06;4.90;;;2.00;;
55800;SDS011;41730;51.960;20.158;2023-02-03T00:44:38;6.50;;;2.80;;
55800;SDS011;41730;51.960;20.158;2023-02-03T00:47:10;5.60;;;2.40;;
55800;SDS011;41730;51.960;20.158;2023-02-03T00:49:41;4.60;;;2.30;;
55800;SDS011;41730;51.960;20.158;2023-02-03T00:52:13;5.00;;;2.50;;
55800;SDS011;41730;51.960;20.158;2023-02-03T00:54:44;5.30;;;2.30;;
55800;SDS011;41730;51.960;20.158;2023-02-03T00:57:16;4.70;;;2.20;;
55800;SDS011;41730;51.960;20.158;2023-02-03T00:59:47;4.20;;;2.10;;
55800;SDS011;41730;51.960;20.158;2023-02-03T01:02:19;5.40;;;1.90;;
55800;SDS011;41730;51.960;20.158;2023-02-03T01:04:51;4.20;;;2.30;;
55800;SDS011;41730;51.960;20.158;2023-02-03T01:07:23;4.60;;;2.10;;
55800;SDS011;41730;51.960;20.158;2023-02-03T01:09:54;6.20;;;2.00;;
55800;SDS011;41730;51.960;20.158;2023-02-03T01:12:26;3.50;;;1.90;;
55800;SDS011;41730;51.960;20.158;2023-02-03T01:14:59;4.00;;;1.80;;
55800;SDS011;41730;51.960;20.158;2023-02-03T01:17:31;4.90;;;2.10;;
55800;SDS011;41730;51.960;20.158;2023-02-03T01:20:04;6.00;;;2.10;;
55800;SDS011;41730;51.960;20.158;2023-02-03T01:22:39;4.40;;;1.80;;
55800;SDS011;41730;51.960;20.158;2023-02-03T01:25:11;4.50;;;1.80;;
55800;SDS011;41730;51.960;20.158;2023-02-03T01:27:42;3.80;;;1.60;;
55800;SDS011;41730;51.960;20.158;2023-02-03T01:30:14;2.90;;;1.90;;
55800;SDS011;41730;51.960;20.158;2023-02-03T01:32:46;5.20;;;1.90;;
55800;SDS011;41730;51.960;20.158;2023-02-03T01:35:18;4.00;;;1.80;;
55800;SDS011;41730;51.960;20.158;2023-02-03T01:37:49;5.30;;;2.20;;
55800;SDS011;41730;51.960;20.158;2023-02-03T01:40:20;4.30;;;1.80;;
55800;SDS011;41730;51.960;20.158;2023-02-03T01:42:53;5.70;;;2.70;;
55800;SDS011;41730;51.960;20.158;2023-02-03T01:45:24;7.20;;;2.90;;
55800;SDS011;41730;51.960;20.158;2023-02-03T01:47:56;7.70;;;2.60;;
55800;SDS011;41730;51.960;20.158;2023-02-03T01:50:29;4.90;;;2.50;;
55800;SDS011;41730;51.960;20.158;2023-02-03T01:53:03;6.10;;;2.70;;
55800;SDS011;41730;51.960;20.158;2023-02-03T01:55:39;5.90;;;2.60;;
55800;SDS011;41730;51.960;20.158;2023-02-03T01:58:14;5.20;;;2.30;;
55800;SDS011;41730;51.960;20.158;2023-02-03T02:00:50;7.10;;;2.90;;
55800;SDS011;41730;51.960;20.158;2023-02-03T02:03:25;5.80;;;2.80;;
55800;SDS011;41730;51.960;20.158;2023-02-03T02:06:03;5.60;;;2.60;;
55800;SDS011;41730;51.960;20.158;2023-02-03T02:11:07;5.80;;;2.90;;
55800;SDS011;41730;51.960;20.158;2023-02-03T02:13:39;9.00;;;2.90;;
55800;SDS011;41730;51.960;20.158;2023-02-03T02:16:14;5.50;;;2.90;;
55800;SDS011;41730;51.960;20.158;2023-02-03T02:18:55;8.90;;;3.50;;
55800;SDS011;41730;51.960;20.158;2023-02-03T02:21:45;5.80;;;2.90;;
55800;SDS011;41730;51.960;20.158;2023-02-03T02:27:33;5.70;;;2.80;;
55800;SDS011;41730;51.960;20.158;2023-02-03T02:30:32;6.20;;;2.40;;
55800;SDS011;41730;51.960;20.158;2023-02-03T02:33:13;7.80;;;2.90;;
55800;SDS011;41730;51.960;20.158;2023-02-03T02:35:57;7.50;;;2.30;;
55800;SDS011;41730;51.960;20.158;2023-02-03T02:38:40;4.80;;;2.60;;
55800;SDS011;41730;51.960;20.158;2023-02-03T02:41:22;7.90;;;2.40;;
55800;SDS011;41730;51.960;20.158;2023-02-03T02:43:58;6.70;;;3.10;;
55800;SDS011;41730;51.960;20.158;2023-02-03T02:46:34;6.80;;;2.80;;
55800;SDS011;41730;51.960;20.158;2023-02-03T02:49:11;8.00;;;2.90;;
55800;SDS011;41730;51.960;20.158;2023-02-03T02:51:47;5.30;;;2.70;;
55800;SDS011;41730;51.960;20.158;2023-02-03T02:54:22;6.50;;;2.90;;
55800;SDS011;41730;51.960;20.158;2023-02-03T02:59:27;5.80;;;3.40;;
55800;SDS011;41730;51.960;20.158;2023-02-03T03:01:59;6.20;;;3.20;;
55800;SDS011;41730;51.960;20.158;2023-02-03T03:04:31;7.00;;;3.50;;
55800;SDS011;41730;51.960;20.158;2023-02-03T03:07:04;5.30;;;3.20;;
55800;SDS011;41730;51.960;20.158;2023-02-03T03:09:41;6.60;;;3.50;;
55800;SDS011;41730;51.960;20.158;2023-02-03T03:12:15;9.20;;;4.10;;
55800;SDS011;41730;51.960;20.158;2023-02-03T03:14:51;6.90;;;3.40;;
55800;SDS011;41730;51.960;20.158;2023-02-03T03:17:27;6.70;;;3.20;;
55800;SDS011;41730;51.960;20.158;2023-02-03T03:20:03;6.10;;;3.40;;
55800;SDS011;41730;51.960;20.158;2023-02-03T03:22:39;8.60;;;4.30;;
55800;SDS011;41730;51.960;20.158;2023-02-03T03:25:16;8.70;;;3.80;;
55800;SDS011;41730;51.960;20.158;2023-02-03T03:27:50;6.80;;;3.70;;
55800;SDS011;41730;51.960;20.158;2023-02-03T03:30:28;9.00;;;3.90;;
55800;SDS011;41730;51.960;20.158;2023-02-03T03:33:04;6.20;;;3.60;;
55800;SDS011;41730;51.960;20.158;2023-02-03T03:35:38;5.70;;;3.60;;
55800;SDS011;41730;51.960;20.158;2023-02-03T03:38:17;6.40;;;3.40;;
55800;SDS011;41730;51.960;20.158;2023-02-03T03:40:52;5.60;;;3.30;;
55800;SDS011;41730;51.960;20.158;2023-02-03T03:43:28;8.10;;;4.10;;
55800;SDS011;41730;51.960;20.158;2023-02-03T03:46:05;7.60;;;3.80;;
55800;SDS011;41730;51.960;20.158;2023-02-03T03:48:42;9.30;;;4.10;;
55800;SDS011;41730;51.960;20.158;2023-02-03T03:51:18;7.70;;;3.80;;
55800;SDS011;41730;51.960;20.158;2023-02-03T03:53:54;8.20;;;3.60;;
55800;SDS011;41730;51.960;20.158;2023-02-03T03:56:33;5.00;;;3.40;;
55800;SDS011;41730;51.960;20.158;2023-02-03T03:59:09;7.20;;;3.90;;
55800;SDS011;41730;51.960;20.158;2023-02-03T04:01:43;8.00;;;4.40;;
55800;SDS011;41730;51.960;20.158;2023-02-03T04:04:16;7.90;;;3.90;;
55800;SDS011;41730;51.960;20.158;2023-02-03T04:06:51;6.70;;;3.50;;
55800;SDS011;41730;51.960;20.158;2023-02-03T04:09:23;6.80;;;3.20;;
55800;SDS011;41730;51.960;20.158;2023-02-03T04:11:54;8.10;;;3.50;;
55800;SDS011;41730;51.960;20.158;2023-02-03T04:14:33;9.10;;;4.30;;
55800;SDS011;41730;51.960;20.158;2023-02-03T04:17:07;9.10;;;4.00;;
55800;SDS011;41730;51.960;20.158;2023-02-03T04:19:39;7.00;;;3.90;;
55800;SDS011;41730;51.960;20.158;2023-02-03T04:22:10;8.00;;;4.10;;
55800;SDS011;41730;51.960;20.158;2023-02-03T04:24:42;8.90;;;4.50;;
55800;SDS011;41730;51.960;20.158;2023-02-03T04:27:13;7.80;;;4.40;;
55800;SDS011;41730;51.960;20.158;2023-02-03T04:29:45;10.30;;;4.60;;
55800;SDS011;41730;51.960;20.158;2023-02-03T04:32:17;10.00;;;5.50;;
55800;SDS011;41730;51.960;20.158;2023-02-03T04:34:49;10.80;;;4.80;;
55800;SDS011;41730;51.960;20.158;2023-02-03T04:37:22;10.60;;;5.00;;
55800;SDS011;41730;51.960;20.158;2023-02-03T04:39:57;9.60;;;4.90;;
55800;SDS011;41730;51.960;20.158;2023-02-03T04:42:35;9.80;;;4.60;;
55800;SDS011;41730;51.960;20.158;2023-02-03T04:45:08;10.70;;;5.10;;
55800;SDS011;41730;51.960;20.158;2023-02-03T04:47:41;9.70;;;4.00;;
55800;SDS011;41730;51.960;20.158;2023-02-03T04:50:12;11.30;;;4.80;;
55800;SDS011;41730;51.960;20.158;2023-02-03T04:52:44;8.90;;;5.10;;
55800;SDS011;41730;51.960;20.158;2023-02-03T04:55:15;9.10;;;4.40;;
55800;SDS011;41730;51.960;20.158;2023-02-03T04:57:47;8.40;;;4.30;;
55800;SDS011;41730;51.960;20.158;2023-02-03T05:00:23;8.40;;;4.30;;
55800;SDS011;41730;51.960;20.158;2023-02-03T05:02:55;8.10;;;4.20;;
55800;SDS011;41730;51.960;20.158;2023-02-03T05:05:27;9.80;;;4.40;;
55800;SDS011;41730;51.960;20.158;2023-02-03T05:07:59;10.60;;;4.70;;
55800;SDS011;41730;51.960;20.158;2023-02-03T05:10:32;13.40;;;6.20;;
55800;SDS011;41730;51.960;20.158;2023-02-03T05:13:03;15.20;;;6.80;;
55800;SDS011;41730;51.960;20.158;2023-02-03T05:15:35;15.60;;;6.90;;
55800;SDS011;41730;51.960;20.158;2023-02-03T05:18:06;12.90;;;5.30;;
55800;SDS011;41730;51.960;20.158;2023-02-03T05:20:38;11.40;;;5.00;;
55800;SDS011;41730;51.960;20.158;2023-02-03T05:23:09;9.90;;;4.70;;
55800;SDS011;41730;51.960;20.158;2023-02-03T05:25:41;8.50;;;4.10;;
55800;SDS011;41730;51.960;20.158;2023-02-03T05:28:13;10.40;;;4.60;;
55800;SDS011;41730;51.960;20.158;2023-02-03T05:30:45;9.90;;;4.80;;
55800;SDS011;41730;51.960;20.158;2023-02-03T05:33:17;14.60;;;6.10;;
55800;SDS011;41730;51.960;20.158;2023-02-03T05:35:49;16.90;;;6.10;;
55800;SDS011;41730;51.960;20.158;2023-02-03T05:38:20;13.80;;;7.20;;
55800;SDS011;41730;51.960;20.158;2023-02-03T05:40:53;11.40;;;6.20;;
55800;SDS011;41730;51.960;20.158;2023-02-03T05:43:41;15.00;;;6.70;;
55800;SDS011;41730;51.960;20.158;2023-02-03T05:46:13;14.40;;;7.80;;
55800;SDS011;41730;51.960;20.158;2023-02-03T05:48:45;16.00;;;7.90;;
55800;SDS011;41730;51.960;20.158;2023-02-03T05:51:16;20.30;;;9.50;;
55800;SDS011;41730;51.960;20.158;2023-02-03T05:53:48;17.30;;;8.90;;
55800;SDS011;41730;51.960;20.158;2023-02-03T05:56:20;16.60;;;7.70;;
55800;SDS011;41730;51.960;20.158;2023-02-03T05:58:54;19.50;;;8.20;;
55800;SDS011;41730;51.960;20.158;2023-02-03T06:01:25;17.20;;;7.70;;
55800;SDS011;41730;51.960;20.158;2023-02-03T06:03:57;18.30;;;7.80;;
55800;SDS011;41730;51.960;20.158;2023-02-03T06:06:29;18.90;;;7.70;;
55800;SDS011;41730;51.960;20.158;2023-02-03T06:09:02;13.70;;;7.40;;
55800;SDS011;41730;51.960;20.158;2023-02-03T06:11:35;15.70;;;7.80;;
55800;SDS011;41730;51.960;20.158;2023-02-03T06:14:09;16.00;;;7.40;;
55800;SDS011;41730;51.960;20.158;2023-02-03T06:16:41;15.90;;;8.00;;
55800;SDS011;41730;51.960;20.158;2023-02-03T06:19:13;16.40;;;8.30;;
55800;SDS011;41730;51.960;20.158;2023-02-03T06:21:44;16.10;;;8.00;;
55800;SDS011;41730;51.960;20.158;2023-02-03T06:24:16;15.50;;;8.20;;
55800;SDS011;41730;51.960;20.158;2023-02-03T06:26:50;20.30;;;8.30;;
55800;SDS011;41730;51.960;20.158;2023-02-03T06:29:22;15.70;;;7.40;;
55800;SDS011;41730;51.960;20.158;2023-02-03T06:31:53;16.30;;;7.80;;
55800;SDS011;41730;51.960;20.158;2023-02-03T06:34:26;19.00;;;8.40;;
55800;SDS011;41730;51.960;20.158;2023-02-03T06:36:58;21.20;;;8.40;;
55800;SDS011;41730;51.960;20.158;2023-02-03T06:39:30;15.90;;;8.20;;
55800;SDS011;41730;51.960;20.158;2023-02-03T06:42:01;17.70;;;8.40;;
55800;SDS011;41730;51.960;20.158;2023-02-03T06:44:33;14.40;;;7.60;;
55800;SDS011;41730;51.960;20.158;2023-02-03T06:47:04;16.30;;;8.30;;
55800;SDS011;41730;51.960;20.158;2023-02-03T06:49:36;13.90;;;7.00;;
55800;SDS011;41730;51.960;20.158;2023-02-03T06:52:07;15.60;;;7.10;;
55800;SDS011;41730;51.960;20.158;2023-02-03T06:54:39;15.20;;;7.00;;
55800;SDS011;41730;51.960;20.158;2023-02-03T06:57:11;18.00;;;8.40;;
55800;SDS011;41730;51.960;20.158;2023-02-03T06:59:42;15.20;;;7.70;;
55800;SDS011;41730;51.960;20.158;2023-02-03T07:02:14;14.90;;;8.00;;
55800;SDS011;41730;51.960;20.158;2023-02-03T07:04:46;17.60;;;8.60;;
55800;SDS011;41730;51.960;20.158;2023-02-03T07:07:18;15.30;;;7.90;;
55800;SDS011;41730;51.960;20.158;2023-02-03T07:09:49;17.50;;;9.10;;
55800;SDS011;41730;51.960;20.158;2023-02-03T07:12:21;16.70;;;9.70;;
55800;SDS011;41730;51.960;20.158;2023-02-03T07:14:52;16.20;;;8.70;;
55800;SDS011;41730;51.960;20.158;2023-02-03T07:17:24;16.30;;;8.50;;
55800;SDS011;41730;51.960;20.158;2023-02-03T07:19:55;16.30;;;8.00;;
55800;SDS011;41730;51.960;20.158;2023-02-03T07:22:27;13.60;;;7.70;;
55800;SDS011;41730;51.960;20.158;2023-02-03T07:24:59;17.20;;;8.00;;
55800;SDS011;41730;51.960;20.158;2023-02-03T07:27:30;16.00;;;8.30;;
55800;SDS011;41730;51.960;20.158;2023-02-03T07:30:02;16.80;;;8.20;;
55800;SDS011;41730;51.960;20.158;2023-02-03T07:32:35;15.40;;;7.80;;
55800;SDS011;41730;51.960;20.158;2023-02-03T07:35:07;14.40;;;6.60;;
55800;SDS011;41730;51.960;20.158;2023-02-03T07:37:38;15.40;;;7.10;;
55800;SDS011;41730;51.960;20.158;2023-02-03T07:40:11;11.60;;;5.80;;
55800;SDS011;41730;51.960;20.158;2023-02-03T07:42:43;12.00;;;5.70;;
55800;SDS011;41730;51.960;20.158;2023-02-03T07:45:16;8.60;;;4.40;;
55800;SDS011;41730;51.960;20.158;2023-02-03T07:47:49;9.60;;;5.60;;
55800;SDS011;41730;51.960;20.158;2023-02-03T07:50:21;12.80;;;6.20;;
55800;SDS011;41730;51.960;20.158;2023-02-03T07:52:53;13.20;;;6.30;;
55800;SDS011;41730;51.960;20.158;2023-02-03T07:55:25;12.40;;;6.80;;
55800;SDS011;41730;51.960;20.158;2023-02-03T07:57:57;14.20;;;7.20;;
55800;SDS011;41730;51.960;20.158;2023-02-03T08:00:30;13.60;;;7.30;;
55800;SDS011;41730;51.960;20.158;2023-02-03T08:03:02;13.90;;;6.50;;
55800;SDS011;41730;51.960;20.158;2023-02-03T08:05:34;13.00;;;6.90;;
55800;SDS011;41730;51.960;20.158;2023-02-03T08:08:06;13.90;;;7.20;;
55800;SDS011;41730;51.960;20.158;2023-02-03T08:10:38;13.30;;;6.90;;
55800;SDS011;41730;51.960;20.158;2023-02-03T08:13:09;15.40;;;7.60;;
55800;SDS011;41730;51.960;20.158;2023-02-03T08:15:41;11.70;;;6.70;;
55800;SDS011;41730;51.960;20.158;2023-02-03T08:18:13;11.60;;;6.20;;
55800;SDS011;41730;51.960;20.158;2023-02-03T08:20:45;10.20;;;5.40;;
55800;SDS011;41730;51.960;20.158;2023-02-03T08:23:17;10.60;;;5.90;;
55800;SDS011;41730;51.960;20.158;2023-02-03T08:25:52;13.70;;;5.80;;
55800;SDS011;41730;51.960;20.158;2023-02-03T08:30:54;9.70;;;5.10;;
55800;SDS011;41730;51.960;20.158;2023-02-03T08:33:26;12.10;;;5.10;;
55800;SDS011;41730;51.960;20.158;2023-02-03T08:35:58;11.20;;;5.60;;
55800;SDS011;41730;51.960;20.158;2023-02-03T08:38:30;14.40;;;6.40;;
55800;SDS011;41730;51.960;20.158;2023-02-03T08:41:05;13.60;;;6.60;;
55800;SDS011;41730;51.960;20.158;2023-02-03T08:43:39;14.90;;;7.10;;
55800;SDS011;41730;51.960;20.158;2023-02-03T08:46:11;15.80;;;6.00;;
55800;SDS011;41730;51.960;20.158;2023-02-03T08:48:43;14.30;;;5.40;;
55800;SDS011;41730;51.960;20.158;2023-02-03T08:51:15;13.50;;;6.20;;
55800;SDS011;41730;51.960;20.158;2023-02-03T08:53:48;16.00;;;6.40;;
55800;SDS011;41730;51.960;20.158;2023-02-03T08:56:19;15.30;;;6.20;;
55800;SDS011;41730;51.960;20.158;2023-02-03T08:58:53;14.90;;;7.20;;
55800;SDS011;41730;51.960;20.158;2023-02-03T09:01:25;13.90;;;6.80;;
55800;SDS011;41730;51.960;20.158;2023-02-03T09:03:57;13.40;;;5.70;;
55800;SDS011;41730;51.960;20.158;2023-02-03T09:06:31;11.10;;;5.30;;
55800;SDS011;41730;51.960;20.158;2023-02-03T09:09:03;12.60;;;5.30;;
55800;SDS011;41730;51.960;20.158;2023-02-03T09:11:35;11.70;;;5.20;;
55800;SDS011;41730;51.960;20.158;2023-02-03T09:14:07;11.20;;;5.30;;
55800;SDS011;41730;51.960;20.158;2023-02-03T09:16:39;11.40;;;5.00;;
55800;SDS011;41730;51.960;20.158;2023-02-03T09:19:11;11.10;;;5.50;;
55800;SDS011;41730;51.960;20.158;2023-02-03T09:21:43;12.60;;;5.70;;
55800;SDS011;41730;51.960;20.158;2023-02-03T09:24:16;13.80;;;6.10;;
55800;SDS011;41730;51.960;20.158;2023-02-03T09:26:49;24.80;;;10.30;;
55800;SDS011;41730;51.960;20.158;2023-02-03T09:29:22;18.20;;;8.00;;
55800;SDS011;41730;51.960;20.158;2023-02-03T09:31:54;20.20;;;9.50;;
55800;SDS011;41730;51.960;20.158;2023-02-03T09:34:25;13.00;;;6.30;;
55800;SDS011;41730;51.960;20.158;2023-02-03T09:36:57;12.20;;;6.00;;
55800;SDS011;41730;51.960;20.158;2023-02-03T09:39:29;11.40;;;6.00;;
55800;SDS011;41730;51.960;20.158;2023-02-03T09:42:09;11.40;;;5.50;;
55800;SDS011;41730;51.960;20.158;2023-02-03T09:45:00;14.80;;;6.20;;
55800;SDS011;41730;51.960;20.158;2023-02-03T09:47:42;12.70;;;6.60;;
55800;SDS011;41730;51.960;20.158;2023-02-03T09:50:21;9.10;;;4.70;;
55800;SDS011;41730;51.960;20.158;2023-02-03T09:52:57;11.20;;;4.80;;
55800;SDS011;41730;51.960;20.158;2023-02-03T09:55:34;12.20;;;4.60;;
55800;SDS011;41730;51.960;20.158;2023-02-03T09:58:10;8.10;;;4.30;;
55800;SDS011;41730;51.960;20.158;2023-02-03T10:00:45;8.80;;;4.30;;
55800;SDS011;41730;51.960;20.158;2023-02-03T10:03:24;11.20;;;4.30;;
55800;SDS011;41730;51.960;20.158;2023-02-03T10:09:07;11.70;;;5.00;;
55800;SDS011;41730;51.960;20.158;2023-02-03T10:11:52;8.90;;;4.20;;
55800;SDS011;41730;51.960;20.158;2023-02-03T10:14:41;9.10;;;4.50;;
55800;SDS011;41730;51.960;20.158;2023-02-03T10:17:28;7.70;;;4.20;;
55800;SDS011;41730;51.960;20.158;2023-02-03T10:20:04;10.80;;;5.20;;
55800;SDS011;41730;51.960;20.158;2023-02-03T10:22:44;11.00;;;5.30;;
55800;SDS011;41730;51.960;20.158;2023-02-03T10:25:20;13.60;;;5.60;;
55800;SDS011;41730;51.960;20.158;2023-02-03T10:27:58;14.80;;;6.10;;
55800;SDS011;41730;51.960;20.158;2023-02-03T10:30:35;15.80;;;7.40;;
55800;SDS011;41730;51.960;20.158;2023-02-03T10:33:13;13.80;;;7.20;;
55800;SDS011;41730;51.960;20.158;2023-02-03T10:35:48;13.60;;;6.30;;
55800;SDS011;41730;51.960;20.158;2023-02-03T10:38:26;12.70;;;6.00;;
55800;SDS011;41730;51.960;20.158;2023-02-03T10:41:08;14.00;;;5.80;;
55800;SDS011;41730;51.960;20.158;2023-02-03T10:43:40;15.00;;;5.50;;
55800;SDS011;41730;51.960;20.158;2023-02-03T10:46:20;14.20;;;6.00;;
55800;SDS011;41730;51.960;20.158;2023-02-03T10:48:58;15.50;;;6.90;;
55800;SDS011;41730;51.960;20.158;2023-02-03T10:51:33;11.30;;;6.30;;
55800;SDS011;41730;51.960;20.158;2023-02-03T10:54:19;14.90;;;6.90;;
55800;SDS011;41730;51.960;20.158;2023-02-03T10:57:00;14.90;;;6.50;;
55800;SDS011;41730;51.960;20.158;2023-02-03T10:59:35;14.10;;;6.90;;
55800;SDS011;41730;51.960;20.158;2023-02-03T11:02:18;12.90;;;6.40;;
55800;SDS011;41730;51.960;20.158;2023-02-03T11:05:10;10.20;;;5.30;;
55800;SDS011;41730;51.960;20.158;2023-02-03T11:07:49;10.60;;;5.40;;
55800;SDS011;41730;51.960;20.158;2023-02-03T11:10:28;13.90;;;6.10;;
55800;SDS011;41730;51.960;20.158;2023-02-03T11:13:11;13.40;;;6.50;;
55800;SDS011;41730;51.960;20.158;2023-02-03T11:15:54;12.70;;;6.20;;
55800;SDS011;41730;51.960;20.158;2023-02-03T11:18:40;12.40;;;6.20;;
55800;SDS011;41730;51.960;20.158;2023-02-03T11:21:16;13.60;;;7.20;;
55800;SDS011;41730;51.960;20.158;2023-02-03T11:23:50;13.30;;;6.40;;
55800;SDS011;41730;51.960;20.158;2023-02-03T11:26:32;18.60;;;7.70;;
55800;SDS011;41730;51.960;20.158;2023-02-03T11:29:14;15.50;;;7.80;;
55800;SDS011;41730;51.960;20.158;2023-02-03T11:31:51;18.50;;;9.10;;
55800;SDS011;41730;51.960;20.158;2023-02-03T11:34:26;15.30;;;7.00;;
55800;SDS011;41730;51.960;20.158;2023-02-03T11:37:22;16.40;;;6.90;;
55800;SDS011;41730;51.960;20.158;2023-02-03T11:39:57;15.90;;;8.60;;
55800;SDS011;41730;51.960;20.158;2023-02-03T11:42:59;13.30;;;7.50;;
55800;SDS011;41730;51.960;20.158;2023-02-03T11:45:36;10.90;;;6.20;;
55800;SDS011;41730;51.960;20.158;2023-02-03T11:48:16;13.80;;;7.20;;
55800;SDS011;41730;51.960;20.158;2023-02-03T11:50:56;15.70;;;7.30;;
55800;SDS011;41730;51.960;20.158;2023-02-03T11:53:35;16.00;;;6.40;;
55800;SDS011;41730;51.960;20.158;2023-02-03T11:56:33;16.00;;;6.60;;
55800;SDS011;41730;51.960;20.158;2023-02-03T11:59:30;13.90;;;7.20;;
55800;SDS011;41730;51.960;20.158;2023-02-03T12:02:20;11.00;;;6.00;;
55800;SDS011;41730;51.960;20.158;2023-02-03T12:05:11;14.10;;;6.80;;
55800;SDS011;41730;51.960;20.158;2023-02-03T12:07:59;11.60;;;6.90;;
55800;SDS011;41730;51.960;20.158;2023-02-03T12:10:46;15.40;;;6.70;;
55800;SDS011;41730;51.960;20.158;2023-02-03T12:16:20;12.30;;;6.60;;
55800;SDS011;41730;51.960;20.158;2023-02-03T12:19:08;14.80;;;6.70;;
55800;SDS011;41730;51.960;20.158;2023-02-03T12:21:45;13.20;;;6.10;;
55800;SDS011;41730;51.960;20.158;2023-02-03T12:24:26;12.90;;;6.80;;
55800;SDS011;41730;51.960;20.158;2023-02-03T12:27:08;14.60;;;7.80;;
55800;SDS011;41730;51.960;20.158;2023-02-03T12:29:48;16.20;;;7.90;;
55800;SDS011;41730;51.960;20.158;2023-02-03T12:32:24;11.60;;;7.50;;
55800;SDS011;41730;51.960;20.158;2023-02-03T12:35:04;19.30;;;8.60;;
55800;SDS011;41730;51.960;20.158;2023-02-03T12:37:47;20.70;;;9.40;;
55800;SDS011;41730;51.960;20.158;2023-02-03T12:40:27;19.30;;;8.60;;
55800;SDS011;41730;51.960;20.158;2023-02-03T12:43:16;22.70;;;9.40;;
55800;SDS011;41730;51.960;20.158;2023-02-03T12:45:54;23.70;;;10.30;;
55800;SDS011;41730;51.960;20.158;2023-02-03T12:48:32;26.10;;;10.40;;
55800;SDS011;41730;51.960;20.158;2023-02-03T12:51:13;30.50;;;11.60;;
55800;SDS011;41730;51.960;20.158;2023-02-03T12:53:53;20.50;;;9.50;;
55800;SDS011;41730;51.960;20.158;2023-02-03T12:56:33;17.40;;;8.80;;
55800;SDS011;41730;51.960;20.158;2023-02-03T12:59:12;18.80;;;9.50;;
55800;SDS011;41730;51.960;20.158;2023-02-03T13:01:49;17.40;;;10.00;;
55800;SDS011;41730;51.960;20.158;2023-02-03T13:04:28;22.10;;;10.80;;
55800;SDS011;41730;51.960;20.158;2023-02-03T13:07:07;17.80;;;10.40;;
55800;SDS011;41730;51.960;20.158;2023-02-03T13:09:46;22.10;;;10.80;;
55800;SDS011;41730;51.960;20.158;2023-02-03T13:12:26;19.40;;;10.80;;
55800;SDS011;41730;51.960;20.158;2023-02-03T13:15:08;19.80;;;11.00;;
55800;SDS011;41730;51.960;20.158;2023-02-03T13:17:51;21.10;;;12.20;;
55800;SDS011;41730;51.960;20.158;2023-02-03T13:20:28;21.70;;;11.80;;
55800;SDS011;41730;51.960;20.158;2023-02-03T13:23:05;20.50;;;10.90;;
55800;SDS011;41730;51.960;20.158;2023-02-03T13:25:44;20.30;;;11.10;;
55800;SDS011;41730;51.960;20.158;2023-02-03T13:28:39;20.70;;;11.00;;
55800;SDS011;41730;51.960;20.158;2023-02-03T13:31:33;21.40;;;10.10;;
55800;SDS011;41730;51.960;20.158;2023-02-03T13:34:15;21.40;;;10.20;;
55800;SDS011;41730;51.960;20.158;2023-02-03T13:37:10;21.40;;;10.60;;
55800;SDS011;41730;51.960;20.158;2023-02-03T13:39:54;21.50;;;11.00;;
55800;SDS011;41730;51.960;20.158;2023-02-03T13:42:41;21.10;;;10.90;;
55800;SDS011;41730;51.960;20.158;2023-02-03T13:45:17;18.80;;;9.80;;
55800;SDS011;41730;51.960;20.158;2023-02-03T13:47:57;17.30;;;8.30;;
55800;SDS011;41730;51.960;20.158;2023-02-03T13:50:37;20.80;;;9.70;;
55800;SDS011;41730;51.960;20.158;2023-02-03T13:53:16;20.70;;;9.80;;
55800;SDS011;41730;51.960;20.158;2023-02-03T13:55:53;15.40;;;9.00;;
55800;SDS011;41730;51.960;20.158;2023-02-03T13:58:28;18.70;;;9.90;;
55800;SDS011;41730;51.960;20.158;2023-02-03T14:04:07;18.80;;;10.20;;
55800;SDS011;41730;51.960;20.158;2023-02-03T14:07:04;19.00;;;9.30;;
55800;SDS011;41730;51.960;20.158;2023-02-03T14:10:12;22.70;;;10.70;;
55800;SDS011;41730;51.960;20.158;2023-02-03T14:13:00;19.40;;;10.80;;
55800;SDS011;41730;51.960;20.158;2023-02-03T14:15:51;20.40;;;9.40;;
55800;SDS011;41730;51.960;20.158;2023-02-03T14:18:51;16.80;;;8.80;;
55800;SDS011;41730;51.960;20.158;2023-02-03T14:21:24;19.90;;;9.80;;
55800;SDS011;41730;51.960;20.158;2023-02-03T14:24:06;19.00;;;9.60;;
55800;SDS011;41730;51.960;20.158;2023-02-03T14:26:41;16.80;;;9.00;;
55800;SDS011;41730;51.960;20.158;2023-02-03T14:29:24;16.60;;;8.30;;
55800;SDS011;41730;51.960;20.158;2023-02-03T14:31:59;16.30;;;8.00;;
55800;SDS011;41730;51.960;20.158;2023-02-03T14:34:35;16.30;;;9.80;;
55800;SDS011;41730;51.960;20.158;2023-02-03T14:37:16;21.40;;;9.70;;
55800;SDS011;41730;51.960;20.158;2023-02-03T14:43:13;21.80;;;9.90;;
55800;SDS011;41730;51.960;20.158;2023-02-03T14:48:53;15.50;;;9.20;;
55800;SDS011;41730;51.960;20.158;2023-02-03T14:51:42;19.10;;;9.90;;
55800;SDS011;41730;51.960;20.158;2023-02-03T14:54:29;14.40;;;7.90;;
55800;SDS011;41730;51.960;20.158;2023-02-03T14:57:17;17.70;;;8.90;;
55800;SDS011;41730;51.960;20.158;2023-02-03T14:59:58;17.40;;;9.80;;
55800;SDS011;41730;51.960;20.158;2023-02-03T15:02:34;19.30;;;8.30;;
55800;SDS011;41730;51.960;20.158;2023-02-03T15:05:36;21.10;;;9.80;;
55800;SDS011;41730;51.960;20.158;2023-02-03T15:11:26;19.50;;;9.10;;
55800;SDS011;41730;51.960;20.158;2023-02-03T15:14:19;24.30;;;9.60;;
55800;SDS011;41730;51.960;20.158;2023-02-03T15:16:56;19.60;;;9.80;;
55800;SDS011;41730;51.960;20.158;2023-02-03T15:19:31;18.10;;;8.90;;
55800;SDS011;41730;51.960;20.158;2023-02-03T15:22:18;16.90;;;8.40;;
55800;SDS011;41730;51.960;20.158;2023-02-03T15:24:53;14.90;;;8.20;;
55800;SDS011;41730;51.960;20.158;2023-02-03T15:27:29;20.30;;;10.00;;
55800;SDS011;41730;51.960;20.158;2023-02-03T15:30:14;13.70;;;6.60;;
55800;SDS011;41730;51.960;20.158;2023-02-03T15:32:52;11.80;;;7.40;;
55800;SDS011;41730;51.960;20.158;2023-02-03T15:35:31;14.20;;;8.10;;
55800;SDS011;41730;51.960;20.158;2023-02-03T15:38:05;16.10;;;9.10;;
55800;SDS011;41730;51.960;20.158;2023-02-03T15:40:42;14.50;;;8.50;;
55800;SDS011;41730;51.960;20.158;2023-02-03T15:43:18;14.50;;;8.50;;
55800;SDS011;41730;51.960;20.158;2023-02-03T15:45:56;13.60;;;8.10;;
55800;SDS011;41730;51.960;20.158;2023-02-03T15:48:36;14.50;;;7.10;;